sensor_id;sensor_type;location;lat;lon;timestamp;P1;durP1;ratioP1;P2;durP2;ratioP2
31732;SDS011;18312;51.486;7.144;2024-02-15T00:00:19;1313.70;;;999.90;;
31732;SDS011;18312;51.486;7.144;2024-02-15T00:02:47;1313.53;;;999.90;;
31732;SDS011;18312;51.486;7.144;2024-02-15T00:05:16;1317.05;;;999.90;;
31732;SDS011;18312;51.486;7.144;2024-02-15T00:07:42;1316.25;;;999.90;;
31732;SDS011;18312;51.486;7.144;2024-02-15T00:10:13;1317.13;;;999.90;;
31732;SDS011;18312;51.486;7.144;2024-02-15T00:12:40;1317.07;;;999.90;;
31732;SDS011;18312;51.486;7.144;2024-02-15T00:15:07;1317.85;;;999.90;;
31732;SDS011;18312;51.486;7.144;2024-02-15T00:17:35;1321.93;;;999.90;;
31732;SDS011;18312;51.486;7.144;2024-02-15T00:20:02;1316.40;;;999.90;;
31732;SDS011;18312;51.486;7.144;2024-02-15T00:22:35;1316.78;;;999.90;;
31732;SDS011;18312;51.486;7.144;2024-02-15T00:25:03;1315.47;;;999.90;;
31732;SDS011;18312;51.486;7.144;2024-02-15T00:27:31;1313.80;;;999.90;;
31732;SDS011;18312;51.486;7.144;2024-02-15T00:29:59;1316.93;;;999.90;;
31732;SDS011;18312;51.486;7.144;2024-02-15T00:32:26;1316.25;;;999.90;;
31732;SDS011;18312;51.486;7.144;2024-02-15T00:34:53;1312.57;;;999.90;;
31732;SDS011;18312;51.486;7.144;2024-02-15T00:37:20;1313.65;;;999.90;;
31732;SDS011;18312;51.486;7.144;2024-02-15T00:39:48;1313.25;;;999.90;;
31732;SDS011;18312;51.486;7.144;2024-02-15T00:42:14;1314.22;;;999.90;;
31732;SDS011;18312;51.486;7.144;2024-02-15T00:44:41;1313.87;;;999.90;;
31732;SDS011;18312;51.486;7.144;2024-02-15T00:47:09;1317.20;;;999.90;;
31732;SDS011;18312;51.486;7.144;2024-02-15T00:49:36;1314.43;;;999.90;;
31732;SDS011;18312;51.486;7.144;2024-02-15T00:52:03;1314.32;;;999.90;;
31732;SDS011;18312;51.486;7.144;2024-02-15T00:54:30;1315.63;;;999.90;;
31732;SDS011;18312;51.486;7.144;2024-02-15T00:56:58;1316.32;;;999.90;;
31732;SDS011;18312;51.486;7.144;2024-02-15T00:59:25;1314.85;;;999.90;;
31732;SDS011;18312;51.486;7.144;2024-02-15T01:01:52;1313.55;;;999.90;;
31732;SDS011;18312;51.486;7.144;2024-02-15T01:04:19;1319.28;;;999.90;;
31732;SDS011;18312;51.486;7.144;2024-02-15T01:06:46;1318.20;;;999.90;;
31732;SDS011;18312;51.486;7.144;2024-02-15T01:09:13;1315.45;;;999.90;;
31732;SDS011;18312;51.486;7.144;2024-02-15T01:11:40;1314.20;;;999.90;;
31732;SDS011;18312;51.486;7.144;2024-02-15T01:14:08;1316.72;;;999.90;;
31732;SDS011;18312;51.486;7.144;2024-02-15T01:16:35;1313.22;;;999.90;;
31732;SDS011;18312;51.486;7.144;2024-02-15T01:19:02;1317.70;;;999.90;;
31732;SDS011;18312;51.486;7.144;2024-02-15T01:21:30;1316.25;;;999.90;;
31732;SDS011;18312;51.486;7.144;2024-02-15T01:23:58;1314.50;;;999.90;;
31732;SDS011;18312;51.486;7.144;2024-02-15T01:26:25;1317.30;;;999.90;;
31732;SDS011;18312;51.486;7.144;2024-02-15T01:28:52;1319.65;;;999.90;;
31732;SDS011;18312;51.486;7.144;2024-02-15T01:31:20;1319.50;;;999.90;;
31732;SDS011;18312;51.486;7.144;2024-02-15T01:33:47;1317.10;;;999.90;;
31732;SDS011;18312;51.486;7.144;2024-02-15T01:36:14;1314.10;;;999.90;;
31732;SDS011;18312;51.486;7.144;2024-02-15T01:38:41;1316.72;;;999.90;;
31732;SDS011;18312;51.486;7.144;2024-02-15T01:41:08;1315.00;;;999.90;;
31732;SDS011;18312;51.486;7.144;2024-02-15T01:43:35;1318.22;;;999.90;;
31732;SDS011;18312;51.486;7.144;2024-02-15T01:46:01;1316.60;;;999.90;;
31732;SDS011;18312;51.486;7.144;2024-02-15T01:48:33;1317.35;;;999.90;;
31732;SDS011;18312;51.486;7.144;2024-02-15T01:51:01;1316.93;;;999.90;;
31732;SDS011;18312;51.486;7.144;2024-02-15T01:53:29;1317.13;;;999.90;;
31732;SDS011;18312;51.486;7.144;2024-02-15T01:55:57;1318.05;;;999.90;;
31732;SDS011;18312;51.486;7.144;2024-02-15T01:58:25;1317.30;;;999.90;;
31732;SDS011;18312;51.486;7.144;2024-02-15T02:00:52;1317.40;;;999.90;;
31732;SDS011;18312;51.486;7.144;2024-02-15T02:03:20;1313.85;;;999.90;;
31732;SDS011;18312;51.486;7.144;2024-02-15T02:05:49;1319.55;;;999.90;;
31732;SDS011;18312;51.486;7.144;2024-02-15T02:08:16;1319.25;;;999.90;;
31732;SDS011;18312;51.486;7.144;2024-02-15T02:10:42;1317.15;;;999.90;;
31732;SDS011;18312;51.486;7.144;2024-02-15T02:13:10;1320.47;;;999.90;;
31732;SDS011;18312;51.486;7.144;2024-02-15T02:15:37;1316.95;;;999.90;;
31732;SDS011;18312;51.486;7.144;2024-02-15T02:18:04;1318.30;;;999.90;;
31732;SDS011;18312;51.486;7.144;2024-02-15T02:20:33;1318.20;;;999.90;;
31732;SDS011;18312;51.486;7.144;2024-02-15T02:23:02;1320.13;;;999.90;;
31732;SDS011;18312;51.486;7.144;2024-02-15T02:25:34;1322.38;;;999.90;;
31732;SDS011;18312;51.486;7.144;2024-02-15T02:28:01;1321.63;;;999.90;;
31732;SDS011;18312;51.486;7.144;2024-02-15T02:30:27;1321.63;;;999.90;;
31732;SDS011;18312;51.486;7.144;2024-02-15T02:32:55;1324.97;;;999.90;;
31732;SDS011;18312;51.486;7.144;2024-02-15T02:35:24;1318.93;;;999.90;;
31732;SDS011;18312;51.486;7.144;2024-02-15T02:37:50;1321.18;;;999.90;;
31732;SDS011;18312;51.486;7.144;2024-02-15T02:40:18;1322.07;;;999.90;;
31732;SDS011;18312;51.486;7.144;2024-02-15T02:42:50;1320.20;;;999.90;;
31732;SDS011;18312;51.486;7.144;2024-02-15T02:45:18;1321.05;;;999.90;;
31732;SDS011;18312;51.486;7.144;2024-02-15T02:47:47;1321.80;;;999.90;;
31732;SDS011;18312;51.486;7.144;2024-02-15T02:50:14;1315.65;;;999.90;;
31732;SDS011;18312;51.486;7.144;2024-02-15T02:52:41;1317.80;;;999.90;;
31732;SDS011;18312;51.486;7.144;2024-02-15T02:55:08;1324.13;;;999.90;;
31732;SDS011;18312;51.486;7.144;2024-02-15T02:57:35;1322.80;;;999.90;;
31732;SDS011;18312;51.486;7.144;2024-02-15T03:00:05;1325.47;;;999.90;;
31732;SDS011;18312;51.486;7.144;2024-02-15T03:02:35;1319.13;;;999.90;;
31732;SDS011;18312;51.486;7.144;2024-02-15T03:05:02;1322.32;;;999.90;;
31732;SDS011;18312;51.486;7.144;2024-02-15T03:07:32;1323.00;;;999.90;;
31732;SDS011;18312;51.486;7.144;2024-02-15T03:09:59;1321.68;;;999.90;;
31732;SDS011;18312;51.486;7.144;2024-02-15T03:12:26;1321.00;;;999.90;;
31732;SDS011;18312;51.486;7.144;2024-02-15T03:14:54;1325.15;;;999.90;;
31732;SDS011;18312;51.486;7.144;2024-02-15T03:17:22;1322.00;;;999.90;;
31732;SDS011;18312;51.486;7.144;2024-02-15T03:19:49;1326.10;;;999.90;;
31732;SDS011;18312;51.486;7.144;2024-02-15T03:22:16;1324.57;;;999.90;;
31732;SDS011;18312;51.486;7.144;2024-02-15T03:24:42;1322.30;;;999.90;;
31732;SDS011;18312;51.486;7.144;2024-02-15T03:27:09;1322.47;;;999.90;;
31732;SDS011;18312;51.486;7.144;2024-02-15T03:29:36;1322.18;;;999.90;;
31732;SDS011;18312;51.486;7.144;2024-02-15T03:32:03;1320.25;;;999.90;;
31732;SDS011;18312;51.486;7.144;2024-02-15T03:34:31;1324.38;;;999.90;;
31732;SDS011;18312;51.486;7.144;2024-02-15T03:36:58;1319.85;;;999.90;;
31732;SDS011;18312;51.486;7.144;2024-02-15T03:39:28;1322.47;;;999.90;;
31732;SDS011;18312;51.486;7.144;2024-02-15T03:41:55;1323.47;;;999.90;;
31732;SDS011;18312;51.486;7.144;2024-02-15T03:44:23;1323.32;;;999.90;;
31732;SDS011;18312;51.486;7.144;2024-02-15T03:46:51;1322.90;;;999.90;;
31732;SDS011;18312;51.486;7.144;2024-02-15T03:49:18;1322.47;;;999.90;;
31732;SDS011;18312;51.486;7.144;2024-02-15T03:51:47;1321.85;;;999.90;;
31732;SDS011;18312;51.486;7.144;2024-02-15T03:54:14;1322.95;;;999.90;;
31732;SDS011;18312;51.486;7.144;2024-02-15T03:56:46;1324.25;;;999.90;;
31732;SDS011;18312;51.486;7.144;2024-02-15T03:59:16;1328.32;;;999.90;;
31732;SDS011;18312;51.486;7.144;2024-02-15T04:01:46;1323.93;;;999.90;;
31732;SDS011;18312;51.486;7.144;2024-02-15T04:04:13;1325.75;;;999.90;;
31732;SDS011;18312;51.486;7.144;2024-02-15T04:06:40;1322.55;;;999.90;;
31732;SDS011;18312;51.486;7.144;2024-02-15T04:09:09;1325.20;;;999.90;;
31732;SDS011;18312;51.486;7.144;2024-02-15T04:11:36;1328.38;;;999.90;;
31732;SDS011;18312;51.486;7.144;2024-02-15T04:14:03;1326.00;;;999.90;;
31732;SDS011;18312;51.486;7.144;2024-02-15T04:16:30;1327.13;;;999.90;;
31732;SDS011;18312;51.486;7.144;2024-02-15T04:18:58;1327.47;;;999.90;;
31732;SDS011;18312;51.486;7.144;2024-02-15T04:21:26;1329.38;;;999.90;;
31732;SDS011;18312;51.486;7.144;2024-02-15T04:23:53;1328.78;;;999.90;;
31732;SDS011;18312;51.486;7.144;2024-02-15T04:26:21;1330.38;;;999.90;;
31732;SDS011;18312;51.486;7.144;2024-02-15T04:28:51;1327.47;;;999.90;;
31732;SDS011;18312;51.486;7.144;2024-02-15T04:31:18;1327.77;;;999.90;;
31732;SDS011;18312;51.486;7.144;2024-02-15T04:33:46;1324.93;;;999.90;;
31732;SDS011;18312;51.486;7.144;2024-02-15T04:36:14;1328.05;;;999.90;;
31732;SDS011;18312;51.486;7.144;2024-02-15T04:38:48;1330.03;;;999.90;;
31732;SDS011;18312;51.486;7.144;2024-02-15T04:41:15;1330.07;;;999.90;;
31732;SDS011;18312;51.486;7.144;2024-02-15T04:43:45;1329.15;;;999.90;;
31732;SDS011;18312;51.486;7.144;2024-02-15T04:46:12;1327.97;;;999.90;;
31732;SDS011;18312;51.486;7.144;2024-02-15T04:48:39;1330.20;;;999.90;;
31732;SDS011;18312;51.486;7.144;2024-02-15T04:51:06;1331.88;;;999.90;;
31732;SDS011;18312;51.486;7.144;2024-02-15T04:53:33;1327.93;;;999.90;;
31732;SDS011;18312;51.486;7.144;2024-02-15T04:56:01;1332.35;;;999.90;;
31732;SDS011;18312;51.486;7.144;2024-02-15T04:58:36;1328.13;;;999.90;;
31732;SDS011;18312;51.486;7.144;2024-02-15T05:01:12;1328.80;;;999.90;;
31732;SDS011;18312;51.486;7.144;2024-02-15T05:03:39;1329.32;;;999.90;;
31732;SDS011;18312;51.486;7.144;2024-02-15T05:06:06;1328.57;;;999.90;;
31732;SDS011;18312;51.486;7.144;2024-02-15T05:08:34;1331.53;;;999.90;;
31732;SDS011;18312;51.486;7.144;2024-02-15T05:11:02;1330.57;;;999.90;;
31732;SDS011;18312;51.486;7.144;2024-02-15T05:13:30;1326.03;;;999.90;;
31732;SDS011;18312;51.486;7.144;2024-02-15T05:15:56;1328.57;;;999.90;;
31732;SDS011;18312;51.486;7.144;2024-02-15T05:18:24;1331.38;;;999.90;;
31732;SDS011;18312;51.486;7.144;2024-02-15T05:20:51;1328.40;;;999.90;;
31732;SDS011;18312;51.486;7.144;2024-02-15T05:23:18;1331.25;;;999.90;;
31732;SDS011;18312;51.486;7.144;2024-02-15T05:25:45;1330.65;;;999.90;;
31732;SDS011;18312;51.486;7.144;2024-02-15T05:28:12;1332.38;;;999.90;;
31732;SDS011;18312;51.486;7.144;2024-02-15T05:30:38;1330.10;;;999.90;;
31732;SDS011;18312;51.486;7.144;2024-02-15T05:33:05;1331.20;;;999.90;;
31732;SDS011;18312;51.486;7.144;2024-02-15T05:35:37;1332.75;;;999.90;;
31732;SDS011;18312;51.486;7.144;2024-02-15T05:38:04;1334.28;;;999.90;;
31732;SDS011;18312;51.486;7.144;2024-02-15T05:40:31;1333.43;;;999.90;;
31732;SDS011;18312;51.486;7.144;2024-02-15T05:42:58;1330.88;;;999.90;;
31732;SDS011;18312;51.486;7.144;2024-02-15T05:45:28;1330.75;;;999.90;;
31732;SDS011;18312;51.486;7.144;2024-02-15T05:47:57;1330.17;;;999.90;;
31732;SDS011;18312;51.486;7.144;2024-02-15T05:50:25;1330.85;;;999.90;;
31732;SDS011;18312;51.486;7.144;2024-02-15T05:52:55;1332.90;;;999.90;;
31732;SDS011;18312;51.486;7.144;2024-02-15T05:55:23;1330.50;;;999.90;;
31732;SDS011;18312;51.486;7.144;2024-02-15T05:57:51;1331.78;;;999.90;;
31732;SDS011;18312;51.486;7.144;2024-02-15T06:00:18;1332.53;;;999.90;;
31732;SDS011;18312;51.486;7.144;2024-02-15T06:02:45;1328.40;;;999.90;;
31732;SDS011;18312;51.486;7.144;2024-02-15T06:05:12;1331.88;;;999.90;;
31732;SDS011;18312;51.486;7.144;2024-02-15T06:07:41;1331.90;;;999.90;;
31732;SDS011;18312;51.486;7.144;2024-02-15T06:10:10;1332.25;;;999.90;;
31732;SDS011;18312;51.486;7.144;2024-02-15T06:12:37;1332.00;;;999.90;;
31732;SDS011;18312;51.486;7.144;2024-02-15T06:15:04;1332.72;;;999.90;;
31732;SDS011;18312;51.486;7.144;2024-02-15T06:17:39;1333.95;;;999.90;;
31732;SDS011;18312;51.486;7.144;2024-02-15T06:20:09;1332.60;;;999.90;;
31732;SDS011;18312;51.486;7.144;2024-02-15T06:22:38;1325.75;;;999.90;;
31732;SDS011;18312;51.486;7.144;2024-02-15T06:25:05;1329.25;;;999.90;;
31732;SDS011;18312;51.486;7.144;2024-02-15T06:27:33;1331.47;;;999.90;;
31732;SDS011;18312;51.486;7.144;2024-02-15T06:30:02;1333.28;;;999.90;;
31732;SDS011;18312;51.486;7.144;2024-02-15T06:32:46;1332.20;;;999.90;;
31732;SDS011;18312;51.486;7.144;2024-02-15T06:35:30;1331.77;;;999.90;;
31732;SDS011;18312;51.486;7.144;2024-02-15T06:38:14;1331.80;;;999.90;;
31732;SDS011;18312;51.486;7.144;2024-02-15T06:40:58;1332.38;;;999.90;;
31732;SDS011;18312;51.486;7.144;2024-02-15T06:43:26;1331.95;;;999.90;;
31732;SDS011;18312;51.486;7.144;2024-02-15T06:45:53;1331.28;;;999.90;;
31732;SDS011;18312;51.486;7.144;2024-02-15T06:48:20;1330.60;;;999.90;;
31732;SDS011;18312;51.486;7.144;2024-02-15T06:50:47;1331.97;;;999.90;;
31732;SDS011;18312;51.486;7.144;2024-02-15T06:53:14;1332.18;;;999.90;;
31732;SDS011;18312;51.486;7.144;2024-02-15T06:55:40;1333.80;;;999.90;;
31732;SDS011;18312;51.486;7.144;2024-02-15T06:58:08;1329.30;;;999.90;;
31732;SDS011;18312;51.486;7.144;2024-02-15T07:00:36;1333.40;;;999.90;;
31732;SDS011;18312;51.486;7.144;2024-02-15T07:03:04;1332.45;;;999.90;;
31732;SDS011;18312;51.486;7.144;2024-02-15T07:05:32;1330.60;;;999.90;;
31732;SDS011;18312;51.486;7.144;2024-02-15T07:07:59;1331.15;;;999.90;;
31732;SDS011;18312;51.486;7.144;2024-02-15T07:10:26;1328.22;;;999.90;;
31732;SDS011;18312;51.486;7.144;2024-02-15T07:12:52;1329.93;;;999.90;;
31732;SDS011;18312;51.486;7.144;2024-02-15T07:15:19;1332.80;;;999.90;;
31732;SDS011;18312;51.486;7.144;2024-02-15T07:17:47;1332.72;;;999.90;;
31732;SDS011;18312;51.486;7.144;2024-02-15T07:20:13;1333.93;;;999.90;;
31732;SDS011;18312;51.486;7.144;2024-02-15T07:22:42;1332.67;;;999.90;;
31732;SDS011;18312;51.486;7.144;2024-02-15T07:25:10;1329.80;;;999.90;;
31732;SDS011;18312;51.486;7.144;2024-02-15T07:27:37;1331.70;;;999.90;;
31732;SDS011;18312;51.486;7.144;2024-02-15T07:30:04;1331.95;;;999.90;;
31732;SDS011;18312;51.486;7.144;2024-02-15T07:32:33;1331.88;;;999.90;;
31732;SDS011;18312;51.486;7.144;2024-02-15T07:35:01;1333.10;;;999.90;;
31732;SDS011;18312;51.486;7.144;2024-02-15T07:37:30;1334.38;;;999.90;;
31732;SDS011;18312;51.486;7.144;2024-02-15T07:39:57;1334.68;;;999.90;;
31732;SDS011;18312;51.486;7.144;2024-02-15T07:42:24;1330.10;;;999.90;;
31732;SDS011;18312;51.486;7.144;2024-02-15T07:44:51;1329.88;;;999.90;;
31732;SDS011;18312;51.486;7.144;2024-02-15T07:47:18;1329.53;;;999.90;;
31732;SDS011;18312;51.486;7.144;2024-02-15T07:49:48;1329.57;;;999.90;;
31732;SDS011;18312;51.486;7.144;2024-02-15T07:52:16;1329.35;;;999.90;;
31732;SDS011;18312;51.486;7.144;2024-02-15T07:54:44;1330.40;;;999.90;;
31732;SDS011;18312;51.486;7.144;2024-02-15T07:57:11;1332.13;;;999.90;;
31732;SDS011;18312;51.486;7.144;2024-02-15T07:59:39;1328.43;;;999.90;;
31732;SDS011;18312;51.486;7.144;2024-02-15T08:02:07;1326.47;;;999.90;;
31732;SDS011;18312;51.486;7.144;2024-02-15T08:04:34;1326.82;;;999.90;;
31732;SDS011;18312;51.486;7.144;2024-02-15T08:07:05;1330.80;;;999.90;;
31732;SDS011;18312;51.486;7.144;2024-02-15T08:09:36;1332.43;;;999.90;;
31732;SDS011;18312;51.486;7.144;2024-02-15T08:12:03;1333.32;;;999.90;;
31732;SDS011;18312;51.486;7.144;2024-02-15T08:14:30;1333.38;;;999.90;;
31732;SDS011;18312;51.486;7.144;2024-02-15T08:16:57;1325.82;;;999.90;;
31732;SDS011;18312;51.486;7.144;2024-02-15T08:19:24;1330.68;;;999.90;;
31732;SDS011;18312;51.486;7.144;2024-02-15T08:21:53;1332.20;;;999.90;;
31732;SDS011;18312;51.486;7.144;2024-02-15T08:24:21;1333.20;;;999.90;;
31732;SDS011;18312;51.486;7.144;2024-02-15T08:26:49;1334.25;;;999.90;;
31732;SDS011;18312;51.486;7.144;2024-02-15T08:29:17;1333.40;;;999.90;;
31732;SDS011;18312;51.486;7.144;2024-02-15T08:31:44;1334.30;;;999.90;;
31732;SDS011;18312;51.486;7.144;2024-02-15T08:34:11;1336.15;;;999.90;;
31732;SDS011;18312;51.486;7.144;2024-02-15T08:36:39;1337.43;;;999.90;;
31732;SDS011;18312;51.486;7.144;2024-02-15T08:39:06;1336.70;;;999.90;;
31732;SDS011;18312;51.486;7.144;2024-02-15T08:41:35;1335.00;;;999.90;;
31732;SDS011;18312;51.486;7.144;2024-02-15T08:44:03;1335.70;;;999.90;;
31732;SDS011;18312;51.486;7.144;2024-02-15T08:46:34;1338.00;;;999.90;;
31732;SDS011;18312;51.486;7.144;2024-02-15T08:49:01;1336.10;;;999.90;;
31732;SDS011;18312;51.486;7.144;2024-02-15T08:51:28;1331.72;;;999.90;;
31732;SDS011;18312;51.486;7.144;2024-02-15T08:53:55;1333.25;;;999.90;;
31732;SDS011;18312;51.486;7.144;2024-02-15T08:56:21;1334.53;;;999.90;;
31732;SDS011;18312;51.486;7.144;2024-02-15T08:58:48;1333.13;;;999.90;;
31732;SDS011;18312;51.486;7.144;2024-02-15T09:01:16;1334.47;;;999.90;;
31732;SDS011;18312;51.486;7.144;2024-02-15T09:03:43;1335.03;;;999.90;;
31732;SDS011;18312;51.486;7.144;2024-02-15T09:06:10;1333.07;;;999.90;;
31732;SDS011;18312;51.486;7.144;2024-02-15T09:08:36;1335.07;;;999.90;;
31732;SDS011;18312;51.486;7.144;2024-02-15T09:11:03;1335.53;;;999.90;;
31732;SDS011;18312;51.486;7.144;2024-02-15T09:13:30;1334.65;;;999.90;;
31732;SDS011;18312;51.486;7.144;2024-02-15T09:15:57;1331.95;;;999.90;;
31732;SDS011;18312;51.486;7.144;2024-02-15T09:18:25;1334.40;;;999.90;;
31732;SDS011;18312;51.486;7.144;2024-02-15T09:20:52;1333.50;;;999.90;;
31732;SDS011;18312;51.486;7.144;2024-02-15T09:23:20;1335.73;;;999.90;;
31732;SDS011;18312;51.486;7.144;2024-02-15T09:25:48;1334.55;;;999.90;;
31732;SDS011;18312;51.486;7.144;2024-02-15T09:28:16;1336.10;;;999.90;;
31732;SDS011;18312;51.486;7.144;2024-02-15T09:30:46;1336.97;;;999.90;;
31732;SDS011;18312;51.486;7.144;2024-02-15T09:33:16;1339.73;;;999.90;;
31732;SDS011;18312;51.486;7.144;2024-02-15T09:35:45;1340.93;;;999.90;;
31732;SDS011;18312;51.486;7.144;2024-02-15T09:38:12;1340.97;;;999.90;;
31732;SDS011;18312;51.486;7.144;2024-02-15T09:40:41;1339.82;;;999.90;;
31732;SDS011;18312;51.486;7.144;2024-02-15T09:43:08;1344.13;;;999.90;;
31732;SDS011;18312;51.486;7.144;2024-02-15T09:45:38;1338.47;;;999.90;;
31732;SDS011;18312;51.486;7.144;2024-02-15T09:48:05;1344.57;;;999.90;;
31732;SDS011;18312;51.486;7.144;2024-02-15T09:50:38;1346.15;;;999.90;;
31732;SDS011;18312;51.486;7.144;2024-02-15T09:53:08;1350.23;;;999.90;;
31732;SDS011;18312;51.486;7.144;2024-02-15T09:55:36;1348.88;;;999.90;;
31732;SDS011;18312;51.486;7.144;2024-02-15T09:58:06;1352.82;;;999.90;;
31732;SDS011;18312;51.486;7.144;2024-02-15T10:00:34;1353.95;;;999.90;;
31732;SDS011;18312;51.486;7.144;2024-02-15T10:03:02;1358.00;;;999.90;;
31732;SDS011;18312;51.486;7.144;2024-02-15T10:05:31;1356.68;;;999.90;;
31732;SDS011;18312;51.486;7.144;2024-02-15T10:07:58;1362.38;;;999.90;;
31732;SDS011;18312;51.486;7.144;2024-02-15T10:10:27;1358.83;;;999.90;;
31732;SDS011;18312;51.486;7.144;2024-02-15T10:12:54;1359.97;;;999.90;;
31732;SDS011;18312;51.486;7.144;2024-02-15T10:15:28;1358.82;;;999.90;;
31732;SDS011;18312;51.486;7.144;2024-02-15T10:17:56;1357.80;;;999.90;;
31732;SDS011;18312;51.486;7.144;2024-02-15T10:20:24;1357.20;;;999.90;;
31732;SDS011;18312;51.486;7.144;2024-02-15T10:22:52;1359.18;;;999.90;;
31732;SDS011;18312;51.486;7.144;2024-02-15T10:25:20;1356.90;;;999.90;;
31732;SDS011;18312;51.486;7.144;2024-02-15T10:27:49;1358.87;;;999.90;;
31732;SDS011;18312;51.486;7.144;2024-02-15T10:30:17;1363.70;;;999.90;;
31732;SDS011;18312;51.486;7.144;2024-02-15T10:32:45;1361.88;;;999.90;;
31732;SDS011;18312;51.486;7.144;2024-02-15T10:35:22;1364.38;;;999.90;;
31732;SDS011;18312;51.486;7.144;2024-02-15T10:37:49;1368.53;;;999.90;;
31732;SDS011;18312;51.486;7.144;2024-02-15T10:40:18;1367.70;;;999.90;;
31732;SDS011;18312;51.486;7.144;2024-02-15T10:42:45;1370.43;;;999.90;;
31732;SDS011;18312;51.486;7.144;2024-02-15T10:45:15;1373.20;;;999.90;;
31732;SDS011;18312;51.486;7.144;2024-02-15T10:47:44;1373.97;;;999.90;;
31732;SDS011;18312;51.486;7.144;2024-02-15T10:50:12;1372.38;;;999.90;;
31732;SDS011;18312;51.486;7.144;2024-02-15T10:52:41;1375.70;;;999.90;;
31732;SDS011;18312;51.486;7.144;2024-02-15T10:55:21;1374.68;;;999.90;;
31732;SDS011;18312;51.486;7.144;2024-02-15T10:57:58;1373.95;;;999.90;;
31732;SDS011;18312;51.486;7.144;2024-02-15T11:00:30;1373.97;;;999.90;;
31732;SDS011;18312;51.486;7.144;2024-02-15T11:03:02;1373.10;;;999.90;;
31732;SDS011;18312;51.486;7.144;2024-02-15T11:05:31;1376.07;;;999.90;;
31732;SDS011;18312;51.486;7.144;2024-02-15T11:08:01;1377.05;;;999.90;;
31732;SDS011;18312;51.486;7.144;2024-02-15T11:10:31;1375.22;;;999.90;;
31732;SDS011;18312;51.486;7.144;2024-02-15T11:12:58;1375.95;;;999.90;;
31732;SDS011;18312;51.486;7.144;2024-02-15T11:15:43;1375.07;;;999.90;;
31732;SDS011;18312;51.486;7.144;2024-02-15T11:21:25;1376.75;;;999.90;;
31732;SDS011;18312;51.486;7.144;2024-02-15T11:24:25;1377.65;;;999.90;;
31732;SDS011;18312;51.486;7.144;2024-02-15T11:26:52;1379.57;;;999.90;;
31732;SDS011;18312;51.486;7.144;2024-02-15T11:32:34;1380.90;;;999.90;;
31732;SDS011;18312;51.486;7.144;2024-02-15T11:35:06;1381.47;;;999.90;;
31732;SDS011;18312;51.486;7.144;2024-02-15T11:37:51;1379.57;;;999.90;;
31732;SDS011;18312;51.486;7.144;2024-02-15T11:40:20;1377.00;;;999.90;;
31732;SDS011;18312;51.486;7.144;2024-02-15T11:42:52;1378.68;;;999.90;;
31732;SDS011;18312;51.486;7.144;2024-02-15T11:45:20;1377.50;;;999.90;;
31732;SDS011;18312;51.486;7.144;2024-02-15T11:47:49;1377.45;;;999.90;;
31732;SDS011;18312;51.486;7.144;2024-02-15T11:50:16;1380.00;;;999.90;;
31732;SDS011;18312;51.486;7.144;2024-02-15T11:52:45;1377.60;;;999.90;;
31732;SDS011;18312;51.486;7.144;2024-02-15T11:55:14;1379.05;;;999.90;;
31732;SDS011;18312;51.486;7.144;2024-02-15T11:57:44;1380.07;;;999.90;;
31732;SDS011;18312;51.486;7.144;2024-02-15T12:00:25;1385.63;;;999.90;;
31732;SDS011;18312;51.486;7.144;2024-02-15T12:03:13;1379.07;;;999.90;;
31732;SDS011;18312;51.486;7.144;2024-02-15T12:05:58;1380.55;;;999.90;;
31732;SDS011;18312;51.486;7.144;2024-02-15T12:08:43;1380.55;;;999.90;;
31732;SDS011;18312;51.486;7.144;2024-02-15T12:11:29;1382.85;;;999.90;;
31732;SDS011;18312;51.486;7.144;2024-02-15T12:14:13;1387.43;;;999.90;;
31732;SDS011;18312;51.486;7.144;2024-02-15T12:16:59;1386.63;;;999.90;;
31732;SDS011;18312;51.486;7.144;2024-02-15T12:19:49;1388.32;;;999.90;;
31732;SDS011;18312;51.486;7.144;2024-02-15T12:22:18;1391.97;;;999.90;;
31732;SDS011;18312;51.486;7.144;2024-02-15T12:24:53;1389.93;;;999.90;;
31732;SDS011;18312;51.486;7.144;2024-02-15T12:27:21;1394.78;;;999.90;;
31732;SDS011;18312;51.486;7.144;2024-02-15T12:29:55;1392.70;;;999.90;;
31732;SDS011;18312;51.486;7.144;2024-02-15T12:32:23;1398.15;;;999.90;;
31732;SDS011;18312;51.486;7.144;2024-02-15T12:34:52;1398.30;;;999.90;;
31732;SDS011;18312;51.486;7.144;2024-02-15T12:37:19;1396.55;;;999.90;;
31732;SDS011;18312;51.486;7.144;2024-02-15T12:39:47;1398.72;;;999.90;;
31732;SDS011;18312;51.486;7.144;2024-02-15T12:42:15;1398.72;;;999.90;;
31732;SDS011;18312;51.486;7.144;2024-02-15T12:44:43;1394.15;;;999.90;;
31732;SDS011;18312;51.486;7.144;2024-02-15T12:47:20;1397.63;;;999.90;;
31732;SDS011;18312;51.486;7.144;2024-02-15T12:49:48;1400.60;;;999.90;;
31732;SDS011;18312;51.486;7.144;2024-02-15T12:52:36;1401.13;;;999.90;;
31732;SDS011;18312;51.486;7.144;2024-02-15T12:55:11;1404.47;;;999.90;;
31732;SDS011;18312;51.486;7.144;2024-02-15T12:57:39;1407.80;;;999.90;;
31732;SDS011;18312;51.486;7.144;2024-02-15T13:00:10;1408.03;;;999.90;;
31732;SDS011;18312;51.486;7.144;2024-02-15T13:02:42;1406.60;;;999.90;;
31732;SDS011;18312;51.486;7.144;2024-02-15T13:05:10;1409.93;;;999.90;;
31732;SDS011;18312;51.486;7.144;2024-02-15T13:07:40;1410.53;;;999.90;;
31732;SDS011;18312;51.486;7.144;2024-02-15T13:10:07;1412.15;;;999.90;;
31732;SDS011;18312;51.486;7.144;2024-02-15T13:12:35;1414.22;;;999.90;;
31732;SDS011;18312;51.486;7.144;2024-02-15T13:15:03;1412.07;;;999.90;;
31732;SDS011;18312;51.486;7.144;2024-02-15T13:17:31;1414.75;;;999.90;;
31732;SDS011;18312;51.486;7.144;2024-02-15T13:19:59;1410.53;;;999.90;;
31732;SDS011;18312;51.486;7.144;2024-02-15T13:22:29;1414.60;;;999.90;;
31732;SDS011;18312;51.486;7.144;2024-02-15T13:24:57;1415.43;;;999.90;;
31732;SDS011;18312;51.486;7.144;2024-02-15T13:27:24;1412.07;;;999.90;;
31732;SDS011;18312;51.486;7.144;2024-02-15T13:29:51;1412.82;;;999.90;;
31732;SDS011;18312;51.486;7.144;2024-02-15T13:32:18;1415.60;;;999.90;;
31732;SDS011;18312;51.486;7.144;2024-02-15T13:34:47;1416.97;;;999.90;;
31732;SDS011;18312;51.486;7.144;2024-02-15T13:37:17;1416.78;;;999.90;;
31732;SDS011;18312;51.486;7.144;2024-02-15T13:39:45;1413.82;;;999.90;;
31732;SDS011;18312;51.486;7.144;2024-02-15T13:42:14;1416.17;;;999.90;;
31732;SDS011;18312;51.486;7.144;2024-02-15T13:44:41;1415.20;;;999.90;;
31732;SDS011;18312;51.486;7.144;2024-02-15T13:47:08;1416.80;;;999.90;;
31732;SDS011;18312;51.486;7.144;2024-02-15T13:49:36;1415.20;;;999.90;;
31732;SDS011;18312;51.486;7.144;2024-02-15T13:52:03;1421.43;;;999.90;;
31732;SDS011;18312;51.486;7.144;2024-02-15T13:54:31;1417.47;;;999.90;;
31732;SDS011;18312;51.486;7.144;2024-02-15T13:56:58;1418.20;;;999.90;;
31732;SDS011;18312;51.486;7.144;2024-02-15T13:59:27;1418.97;;;999.90;;